createdAt,value
2018-06-07T00:00:06.373Z,23.60
2018-06-07T00:02:35.541Z,23.54
2018-06-07T00:05:04.710Z,23.51
2018-06-07T00:07:33.842Z,23.48
2018-06-07T00:10:03.034Z,23.44
2018-06-07T00:12:32.195Z,23.40
2018-06-07T00:15:01.304Z,23.41
2018-06-07T00:17:30.500Z,23.38
2018-06-07T00:19:59.657Z,23.36
2018-06-07T00:22:28.827Z,23.32
2018-06-07T00:24:57.957Z,23.26
2018-06-07T00:27:27.177Z,23.20
2018-06-07T00:29:56.279Z,23.17
2018-06-07T00:32:25.369Z,23.11
2018-06-07T00:34:54.485Z,23.09
2018-06-07T00:37:23.641Z,23.06
2018-06-07T00:39:52.786Z,23.04
2018-06-07T00:42:21.922Z,23.03
2018-06-07T00:44:51.109Z,22.99
2018-06-07T00:47:20.253Z,22.96
2018-06-07T00:49:49.425Z,22.88
2018-06-07T00:52:18.517Z,22.87
2018-06-07T00:54:47.673Z,22.81
2018-06-07T00:57:16.770Z,22.78
2018-06-07T00:59:45.869Z,22.71
2018-06-07T01:02:15.033Z,22.73
2018-06-07T01:04:44.164Z,22.75
2018-06-07T01:07:13.276Z,22.71
2018-06-07T01:09:42.374Z,22.67
2018-06-07T01:12:12.703Z,22.66
2018-06-07T01:14:41.818Z,22.65
2018-06-07T01:17:10.982Z,22.64
2018-06-07T01:19:40.078Z,22.65
2018-06-07T01:22:09.277Z,22.62
2018-06-07T01:24:38.428Z,22.58
2018-06-07T01:27:07.593Z,22.59
2018-06-07T01:29:47.877Z,22.59
2018-06-07T01:33:34.014Z,22.59
2018-06-07T01:36:03.476Z,22.55
2018-06-07T01:38:43.930Z,22.52
2018-06-07T01:41:13.044Z,22.51
2018-06-07T01:43:42.133Z,22.50
2018-06-07T01:46:11.267Z,22.44
2018-06-07T01:48:40.380Z,22.42
2018-06-07T01:51:09.558Z,22.42
2018-06-07T01:53:38.671Z,22.40
2018-06-07T01:56:07.803Z,22.38
2018-06-07T01:58:36.894Z,22.35
2018-06-07T02:01:06.022Z,22.32
2018-06-07T02:03:35.132Z,22.31
2018-06-07T02:06:04.261Z,22.24
2018-06-07T02:08:33.390Z,22.27
2018-06-07T02:11:02.540Z,22.27
2018-06-07T02:13:31.678Z,22.27
2018-06-07T02:16:00.864Z,22.24
2018-06-07T02:18:29.963Z,22.22
2018-06-07T02:20:59.087Z,22.21
2018-06-07T02:23:28.216Z,22.16
2018-06-07T02:25:57.422Z,22.14
2018-06-07T02:28:43.572Z,22.14
2018-06-07T02:31:15.494Z,22.13
2018-06-07T02:33:44.576Z,22.10
2018-06-07T02:36:13.748Z,22.10
2018-06-07T02:38:42.894Z,22.10
2018-06-07T02:41:12.007Z,22.08
2018-06-07T02:43:41.080Z,22.10
2018-06-07T02:46:10.194Z,22.12
2018-06-07T02:48:39.366Z,22.14
2018-06-07T02:51:08.509Z,22.16
2018-06-07T02:53:37.653Z,22.24
2018-06-07T02:56:06.753Z,22.27
2018-06-07T02:58:35.899Z,22.30
2018-06-07T03:01:05.042Z,22.30
2018-06-07T03:03:34.159Z,22.32
2018-06-07T03:06:03.622Z,22.28
2018-06-07T03:08:32.698Z,22.40
2018-06-07T03:11:01.922Z,22.36
2018-06-07T03:13:31.063Z,22.28
2018-06-07T03:16:00.253Z,22.15
2018-06-07T03:18:29.390Z,22.23
2018-06-07T03:20:58.486Z,22.20
2018-06-07T03:23:27.692Z,22.16
2018-06-07T03:25:56.802Z,22.14
2018-06-07T03:28:25.860Z,22.10
2018-06-07T03:30:55.034Z,22.08
2018-06-07T03:33:24.142Z,22.05
2018-06-07T03:35:53.325Z,22.04
2018-06-07T03:38:22.424Z,22.01
2018-06-07T03:40:51.609Z,21.99
2018-06-07T03:43:20.765Z,21.98
2018-06-07T03:45:49.922Z,22.01
2018-06-07T03:48:19.056Z,22.02
2018-06-07T03:50:48.201Z,22.09
2018-06-07T03:53:17.342Z,22.09
2018-06-07T03:55:46.479Z,22.12
2018-06-07T03:58:15.644Z,22.14
2018-06-07T04:00:44.747Z,22.16
2018-06-07T04:03:13.882Z,22.26
2018-06-07T04:05:58.019Z,22.37
2018-06-07T04:08:30.052Z,22.36
2018-06-07T04:10:59.152Z,22.29
2018-06-07T04:13:28.289Z,22.25
2018-06-07T04:15:57.436Z,22.21
2018-06-07T04:18:26.509Z,22.19
2018-06-07T04:20:55.661Z,22.19
2018-06-07T04:23:24.746Z,22.12
2018-06-07T04:25:53.933Z,22.09
2018-06-07T04:28:23.082Z,22.14
2018-06-07T04:30:52.619Z,22.19
2018-06-07T04:33:21.775Z,22.17
2018-06-07T04:35:50.885Z,22.30
2018-06-07T04:38:20.046Z,22.26
2018-06-07T04:40:49.220Z,22.29
2018-06-07T04:43:19.459Z,22.23
2018-06-07T04:45:48.615Z,22.24
2018-06-07T04:48:18.797Z,22.24
2018-06-07T04:50:47.904Z,22.20
2018-06-07T04:53:18.199Z,22.23
2018-06-07T04:55:48.270Z,22.21
2018-06-07T04:58:17.584Z,22.19
2018-06-07T05:00:46.748Z,22.13
2018-06-07T05:03:15.933Z,22.10
2018-06-07T05:05:45.043Z,22.11
2018-06-07T05:08:14.197Z,22.08
2018-06-07T05:10:43.364Z,22.07
2018-06-07T05:13:12.479Z,22.06
2018-06-07T05:15:41.620Z,22.16
2018-06-07T05:18:10.783Z,22.25
2018-06-07T05:20:40.503Z,22.30
2018-06-07T05:23:16.046Z,22.35
2018-06-07T05:25:45.162Z,22.37
2018-06-07T05:28:14.282Z,22.40
2018-06-07T05:30:43.429Z,22.41
2018-06-07T05:33:12.612Z,22.35
2018-06-07T05:35:42.070Z,22.38
2018-06-07T05:38:11.189Z,22.31
2018-06-07T05:40:40.683Z,22.34
2018-06-07T05:43:09.843Z,22.32
2018-06-07T05:45:38.954Z,22.34
2018-06-07T05:48:08.174Z,22.39
2018-06-07T05:50:37.292Z,22.37
2018-06-07T05:53:06.397Z,22.38
2018-06-07T05:55:35.475Z,22.29
2018-06-07T05:58:04.743Z,22.32
2018-06-07T06:00:33.851Z,22.32
2018-06-07T06:03:03.075Z,22.39
2018-06-07T06:05:32.177Z,22.47
2018-06-07T06:08:01.265Z,22.47
2018-06-07T06:10:30.419Z,22.52
2018-06-07T06:12:59.633Z,22.53
2018-06-07T06:15:28.800Z,22.59
2018-06-07T06:17:58.266Z,22.58
2018-06-07T06:20:27.598Z,22.62
2018-06-07T06:22:56.686Z,22.68
2018-06-07T06:25:25.911Z,22.72
2018-06-07T06:27:55.079Z,22.83
2018-06-07T06:30:24.176Z,22.95
2018-06-07T06:32:53.449Z,23.06
2018-06-07T06:35:22.606Z,23.21
2018-06-07T06:38:55.805Z,23.20
2018-06-07T06:41:24.970Z,23.26
2018-06-07T06:43:54.159Z,23.32
2018-06-07T06:46:23.297Z,23.40
2018-06-07T06:48:52.430Z,23.47
2018-06-07T06:51:21.592Z,23.52
2018-06-07T06:53:50.741Z,23.52
2018-06-07T06:56:20.053Z,23.45
2018-06-07T06:58:49.206Z,23.48
2018-06-07T07:01:18.386Z,23.56
2018-06-07T07:03:47.595Z,23.50
2018-06-07T07:06:16.854Z,23.50
2018-06-07T07:08:46.436Z,23.53
2018-06-07T07:11:15.612Z,23.49
2018-06-07T07:13:44.756Z,23.53
2018-06-07T07:16:13.832Z,23.62
2018-06-07T07:18:42.999Z,23.63
2018-06-07T07:21:12.265Z,23.64
2018-06-07T07:23:41.408Z,23.56
2018-06-07T07:26:10.546Z,23.51
2018-06-07T07:28:40.476Z,23.61
2018-06-07T07:31:09.603Z,23.69
2018-06-07T07:33:38.703Z,23.74
2018-06-07T07:36:07.818Z,23.81
2018-06-07T07:38:36.950Z,23.87
2018-06-07T07:41:06.057Z,23.99
2018-06-07T07:43:35.248Z,24.07
2018-06-07T07:46:04.388Z,24.08
2018-06-07T07:48:33.512Z,24.05
2018-06-07T07:51:02.676Z,24.04
2018-06-07T07:53:31.810Z,24.06
2018-06-07T07:56:00.965Z,24.15
2018-06-07T07:58:30.163Z,24.22
2018-06-07T08:00:59.379Z,24.34
2018-06-07T08:03:28.560Z,24.40
2018-06-07T08:05:57.652Z,24.54
2018-06-07T08:08:26.858Z,24.57
2018-06-07T08:10:55.947Z,24.57
2018-06-07T08:13:25.150Z,24.63
2018-06-07T08:15:54.271Z,24.60
2018-06-07T08:18:23.486Z,24.58
2018-06-07T08:20:52.632Z,24.64
2018-06-07T08:23:21.780Z,24.66
2018-06-07T08:25:50.963Z,24.74
2018-06-07T08:28:20.657Z,24.70
2018-06-07T08:30:49.781Z,24.85
2018-06-07T08:33:18.918Z,24.87
2018-06-07T08:35:48.121Z,24.86
2018-06-07T08:38:17.277Z,24.82
2018-06-07T08:40:46.402Z,24.90
2018-06-07T08:43:15.626Z,24.92
2018-06-07T08:45:44.710Z,24.88
2018-06-07T08:48:13.839Z,24.98
2018-06-07T08:50:43.909Z,25.12
2018-06-07T08:53:13.021Z,25.08
2018-06-07T08:55:42.245Z,25.22
2018-06-07T08:58:11.382Z,25.46
2018-06-07T09:00:40.580Z,25.66
2018-06-07T09:03:09.707Z,25.78
2018-06-07T09:05:39.007Z,25.99
2018-06-07T09:08:08.172Z,26.07
2018-06-07T09:10:37.335Z,26.09
2018-06-07T09:13:06.461Z,26.32
2018-06-07T09:15:35.694Z,26.57
2018-06-07T09:18:06.031Z,26.76
2018-06-07T09:20:35.288Z,26.83
2018-06-07T09:23:04.375Z,26.74
2018-06-07T09:25:33.530Z,26.64
2018-06-07T09:28:02.624Z,26.73
2018-06-07T09:30:31.783Z,26.83
2018-06-07T09:33:01.022Z,26.94
2018-06-07T09:35:30.165Z,26.98
2018-06-07T09:37:59.280Z,26.92
2018-06-07T09:40:28.425Z,26.97
2018-06-07T09:42:57.555Z,26.96
2018-06-07T09:45:26.689Z,26.90
2018-06-07T09:47:55.828Z,26.98
2018-06-07T09:50:24.974Z,27.13
2018-06-07T09:52:54.093Z,27.18
2018-06-07T09:55:23.197Z,27.13
2018-06-07T09:57:52.398Z,27.15
2018-06-07T10:00:26.600Z,27.19
2018-06-07T10:02:55.805Z,27.07
2018-06-07T10:05:24.943Z,27.07
2018-06-07T10:07:54.172Z,27.11
2018-06-07T10:10:23.279Z,27.16
2018-06-07T10:12:52.461Z,27.39
2018-06-07T10:15:21.590Z,27.37
2018-06-07T10:17:50.854Z,27.46
2018-06-07T10:20:19.924Z,27.58
2018-06-07T10:22:49.076Z,27.67
2018-06-07T10:25:18.198Z,27.91
2018-06-07T10:27:47.295Z,28.02
2018-06-07T10:30:16.384Z,27.96
2018-06-07T10:32:45.551Z,27.97
2018-06-07T10:35:14.700Z,28.04
2018-06-07T10:37:43.932Z,28.01
2018-06-07T10:40:13.068Z,28.01
2018-06-07T10:42:42.635Z,27.98
2018-06-07T10:45:11.715Z,28.00
2018-06-07T10:47:40.948Z,27.96
2018-06-07T10:50:10.088Z,27.81
2018-06-07T10:52:39.263Z,27.65
2018-06-07T10:55:08.368Z,27.52
2018-06-07T10:57:37.593Z,27.47
2018-06-07T11:00:06.836Z,27.50
2018-06-07T11:02:35.961Z,27.81
2018-06-07T11:05:05.148Z,28.13
2018-06-07T11:07:34.274Z,28.16
2018-06-07T11:10:04.620Z,28.25
2018-06-07T11:12:33.717Z,28.11
2018-06-07T11:15:03.016Z,28.24
2018-06-07T11:17:32.109Z,28.43
2018-06-07T11:20:01.213Z,28.69
2018-06-07T11:22:30.340Z,28.55
2018-06-07T11:24:59.569Z,28.52
2018-06-07T11:27:28.745Z,28.38
2018-06-07T11:29:57.886Z,28.43
2018-06-07T11:32:27.023Z,28.46
2018-06-07T11:34:56.128Z,28.45
2018-06-07T11:37:25.270Z,28.46
2018-06-07T11:39:54.353Z,28.59
2018-06-07T11:42:23.480Z,28.66
2018-06-07T11:44:52.592Z,28.70
2018-06-07T11:47:21.723Z,28.95
2018-06-07T11:49:50.954Z,29.25
2018-06-07T11:52:20.036Z,29.95
2018-06-07T11:54:49.248Z,30.05
2018-06-07T11:57:18.390Z,30.33
2018-06-07T11:59:47.512Z,30.18
2018-06-07T12:02:16.634Z,30.11
2018-06-07T12:04:45.870Z,30.35
2018-06-07T12:07:14.975Z,30.67
2018-06-07T12:09:44.148Z,30.71
2018-06-07T12:12:13.334Z,30.76
2018-06-07T12:14:42.467Z,30.97
2018-06-07T12:17:11.634Z,31.35
2018-06-07T12:19:40.765Z,31.62
2018-06-07T12:22:09.913Z,31.76
2018-06-07T12:24:39.119Z,31.95
2018-06-07T12:27:08.232Z,32.20
2018-06-07T12:29:37.398Z,32.09
2018-06-07T12:32:06.588Z,31.79
2018-06-07T12:34:35.685Z,31.80
2018-06-07T12:37:04.827Z,32.08
2018-06-07T12:39:33.959Z,32.29
2018-06-07T12:42:03.087Z,32.07
2018-06-07T12:44:32.463Z,31.85
2018-06-07T12:47:01.666Z,31.79
2018-06-07T12:49:30.860Z,32.10
2018-06-07T12:51:59.979Z,32.40
2018-06-07T12:54:29.182Z,32.16
2018-06-07T12:56:58.382Z,32.62
2018-06-07T12:59:27.500Z,32.72
2018-06-07T13:01:56.670Z,32.79
2018-06-07T13:04:25.816Z,32.73
2018-06-07T13:06:54.961Z,33.00
2018-06-07T13:09:24.113Z,32.97
2018-06-07T13:11:53.223Z,33.16
2018-06-07T13:14:23.372Z,32.73
2018-06-07T13:16:52.583Z,32.51
2018-06-07T13:19:21.768Z,32.68
2018-06-07T13:21:51.550Z,33.16
2018-06-07T13:24:21.234Z,33.26
2018-06-07T13:26:50.819Z,33.44
2018-06-07T13:29:19.912Z,32.86
2018-06-07T13:31:49.029Z,32.83
2018-06-07T13:34:18.158Z,32.96
2018-06-07T13:36:47.280Z,32.85
2018-06-07T13:39:16.417Z,32.70
2018-06-07T13:41:45.591Z,32.86
2018-06-07T13:44:14.760Z,33.23
2018-06-07T13:46:43.887Z,33.45
2018-06-07T13:49:13.033Z,33.72
2018-06-07T13:51:42.153Z,33.35
2018-06-07T13:54:11.542Z,33.30
2018-06-07T13:56:40.848Z,33.24
2018-06-07T13:59:09.992Z,32.65
2018-06-07T14:01:39.154Z,32.24
2018-06-07T14:04:08.297Z,32.34
2018-06-07T14:06:37.404Z,32.31
2018-06-07T14:09:07.934Z,31.88
2018-06-07T14:11:37.076Z,31.62
2018-06-07T14:14:06.235Z,31.63
2018-06-07T14:16:35.355Z,31.83
2018-06-07T14:19:04.546Z,32.00
2018-06-07T14:21:34.437Z,31.91
2018-06-07T14:24:03.512Z,31.78
2018-06-07T14:26:32.673Z,31.69
2018-06-07T14:29:01.777Z,31.73
2018-06-07T14:31:30.952Z,31.70
2018-06-07T14:34:00.105Z,31.72
2018-06-07T14:36:29.278Z,31.68
2018-06-07T14:38:58.384Z,31.57
2018-06-07T14:41:27.567Z,31.40
2018-06-07T14:43:56.685Z,31.26
2018-06-07T14:46:25.826Z,31.43
2018-06-07T14:48:54.928Z,31.69
2018-06-07T14:51:24.037Z,32.04
2018-06-07T14:53:53.226Z,32.33
2018-06-07T14:56:22.334Z,32.76
2018-06-07T14:58:51.469Z,33.10
2018-06-07T15:01:20.613Z,33.24
2018-06-07T15:03:49.805Z,33.58
2018-06-07T15:06:18.926Z,33.89
2018-06-07T15:08:48.088Z,33.89
2018-06-07T15:11:17.273Z,34.34
2018-06-07T15:13:47.036Z,34.53
2018-06-07T15:16:16.158Z,34.77
2018-06-07T15:18:45.266Z,34.60
2018-06-07T15:21:14.369Z,34.01
2018-06-07T15:23:43.497Z,33.88
2018-06-07T15:26:12.621Z,34.12
2018-06-07T15:28:41.739Z,34.47
2018-06-07T15:31:10.886Z,34.52
2018-06-07T15:33:40.031Z,34.09
2018-06-07T15:36:09.197Z,33.61
2018-06-07T15:38:38.336Z,33.10
2018-06-07T15:41:07.520Z,32.63
2018-06-07T15:43:36.614Z,32.27
2018-06-07T15:46:05.704Z,32.04
2018-06-07T15:48:34.831Z,31.84
2018-06-07T15:51:03.931Z,31.46
2018-06-07T15:53:33.100Z,31.17
2018-06-07T15:56:02.240Z,30.80
2018-06-07T15:58:31.368Z,30.71
2018-06-07T16:01:00.482Z,30.69
2018-06-07T16:03:29.582Z,30.55
2018-06-07T16:05:58.684Z,30.51
2018-06-07T16:08:27.890Z,30.55
2018-06-07T16:10:57.044Z,30.18
2018-06-07T16:13:26.164Z,30.06
2018-06-07T16:15:55.313Z,29.57
2018-06-07T16:18:24.501Z,29.09
2018-06-07T16:20:53.603Z,28.94
2018-06-07T16:23:22.694Z,28.46
2018-06-07T16:25:51.854Z,27.48
2018-06-07T16:28:20.972Z,25.03
2018-06-07T16:30:50.051Z,22.31
2018-06-07T16:33:19.175Z,21.47
2018-06-07T16:35:48.318Z,20.86
2018-06-07T16:38:17.492Z,20.18
2018-06-07T16:40:46.780Z,20.06
2018-06-07T16:43:15.934Z,19.97
2018-06-07T16:45:45.048Z,19.96
2018-06-07T16:48:14.209Z,19.88
2018-06-07T16:50:43.351Z,19.97
2018-06-07T16:53:12.517Z,19.94
2018-06-07T16:55:41.663Z,19.93
2018-06-07T16:58:10.795Z,19.85
2018-06-07T17:00:39.946Z,19.78
2018-06-07T17:03:09.065Z,19.78
2018-06-07T17:05:38.748Z,19.88
2018-06-07T17:08:07.901Z,19.82
2018-06-07T17:10:37.026Z,19.75
2018-06-07T17:13:06.199Z,19.75
2018-06-07T17:15:35.349Z,19.81
2018-06-07T17:18:05.759Z,19.90
2018-06-07T17:20:35.620Z,19.94
2018-06-07T17:23:04.803Z,19.97
2018-06-07T17:25:33.938Z,20.01
2018-06-07T17:28:03.112Z,20.07
2018-06-07T17:30:32.237Z,20.09
2018-06-07T17:33:01.440Z,20.09
2018-06-07T17:35:30.552Z,20.08
2018-06-07T17:38:00.246Z,20.07
2018-06-07T17:40:29.367Z,19.95
2018-06-07T17:42:58.554Z,19.88
2018-06-07T17:45:27.648Z,19.88
2018-06-07T17:47:56.906Z,19.95
2018-06-07T17:50:25.988Z,20.02
2018-06-07T17:52:55.145Z,20.10
2018-06-07T17:55:24.231Z,20.15
2018-06-07T17:57:53.403Z,20.24
2018-06-07T18:00:22.671Z,20.19
2018-06-07T18:02:51.833Z,20.10
2018-06-07T18:05:21.212Z,20.10
2018-06-07T18:07:50.372Z,20.08
2018-06-07T18:10:19.548Z,20.04
2018-06-07T18:12:49.045Z,20.04
2018-06-07T18:15:18.221Z,20.02
2018-06-07T18:17:47.374Z,20.05
2018-06-07T18:20:16.726Z,20.02
2018-06-07T18:22:46.047Z,20.03
2018-06-07T18:25:15.167Z,20.02
2018-06-07T18:27:44.290Z,20.03
2018-06-07T18:30:13.519Z,20.06
2018-06-07T18:32:42.633Z,20.09
2018-06-07T18:35:12.768Z,20.09
2018-06-07T18:37:41.901Z,20.12
2018-06-07T18:40:11.777Z,20.06
2018-06-07T18:42:40.901Z,20.09
2018-06-07T18:45:10.508Z,20.00
2018-06-07T18:47:40.147Z,20.01
2018-06-07T18:50:11.232Z,20.03
2018-06-07T18:52:41.069Z,20.07
2018-06-07T18:55:10.257Z,20.13
2018-06-07T18:57:39.398Z,20.14
2018-06-07T19:00:09.300Z,20.07
2018-06-07T19:02:38.484Z,20.07
2018-06-07T19:05:07.744Z,20.03
2018-06-07T19:07:36.915Z,20.05
2018-06-07T19:10:09.111Z,20.05
2018-06-07T19:12:38.261Z,20.11
2018-06-07T19:15:15.310Z,20.14
2018-06-07T19:17:44.408Z,20.18
2018-06-07T19:20:18.828Z,20.14
2018-06-07T19:22:47.962Z,20.10
2018-06-07T19:25:22.380Z,20.09
2018-06-07T19:27:51.475Z,20.04
2018-06-07T19:30:20.610Z,20.06
2018-06-07T19:32:55.091Z,20.01
2018-06-07T19:35:24.215Z,20.05
2018-06-07T19:37:53.360Z,20.10
2018-06-07T19:40:27.748Z,20.12
2018-06-07T19:42:56.899Z,20.17
2018-06-07T19:45:25.989Z,20.24
2018-06-07T19:47:55.123Z,20.26
2018-06-07T19:50:24.259Z,20.31
2018-06-07T19:52:53.388Z,20.33
2018-06-07T19:55:22.589Z,20.37
2018-06-07T19:57:51.711Z,20.41
2018-06-07T20:00:20.859Z,20.39
2018-06-07T20:02:50.020Z,20.40
2018-06-07T20:05:19.139Z,20.36
2018-06-07T20:07:48.228Z,20.34
2018-06-07T20:10:17.462Z,20.30
2018-06-07T20:12:46.562Z,20.31
2018-06-07T20:15:15.682Z,20.28
2018-06-07T20:17:44.823Z,20.24
2018-06-07T20:20:13.939Z,20.23
2018-06-07T20:22:43.042Z,20.20
2018-06-07T20:25:12.170Z,20.22
2018-06-07T20:27:41.315Z,20.22
2018-06-07T20:30:10.411Z,20.21
2018-06-07T20:32:39.734Z,20.22
2018-06-07T20:35:08.855Z,20.26
2018-06-07T20:37:38.041Z,20.28
2018-06-07T20:40:07.185Z,20.27
2018-06-07T20:42:36.431Z,20.31
2018-06-07T20:45:05.657Z,20.36
2018-06-07T20:47:34.792Z,20.39
2018-06-07T20:50:04.018Z,20.42
2018-06-07T20:52:33.116Z,20.42
2018-06-07T20:55:02.245Z,20.43
2018-06-07T20:57:31.383Z,20.43
2018-06-07T21:00:00.548Z,20.45
2018-06-07T21:02:29.697Z,20.46
2018-06-07T21:04:58.833Z,20.48
2018-06-07T21:07:29.096Z,20.52
2018-06-07T21:09:58.673Z,20.49
2018-06-07T21:12:28.513Z,20.48
2018-06-07T21:14:57.659Z,20.54
2018-06-07T21:17:26.756Z,20.47
2018-06-07T21:19:55.938Z,20.44
2018-06-07T21:22:25.094Z,20.42
2018-06-07T21:24:54.193Z,20.46
2018-06-07T21:27:23.309Z,20.43
2018-06-07T21:29:52.476Z,20.40
2018-06-07T21:32:21.599Z,20.36
2018-06-07T21:34:50.854Z,20.37
2018-06-07T21:37:19.969Z,20.34
2018-06-07T21:39:49.138Z,20.31
2018-06-07T21:42:18.265Z,20.30
2018-06-07T21:44:47.353Z,20.30
2018-06-07T21:47:16.513Z,20.30
2018-06-07T21:49:45.682Z,20.28
2018-06-07T21:52:14.809Z,20.31
2018-06-07T21:54:43.937Z,20.24
2018-06-07T21:57:13.069Z,20.18
2018-06-07T21:59:42.214Z,20.12
2018-06-07T22:02:11.333Z,20.10
2018-06-07T22:04:40.459Z,20.09
2018-06-07T22:07:09.579Z,20.07
2018-06-07T22:09:38.704Z,20.04
2018-06-07T22:12:07.803Z,20.05
2018-06-07T22:14:36.933Z,20.01
2018-06-07T22:17:06.789Z,20.01
2018-06-07T22:19:35.900Z,20.00
2018-06-07T22:22:05.242Z,20.09
2018-06-07T22:24:34.362Z,20.16
2018-06-07T22:27:04.090Z,20.16
2018-06-07T22:29:33.207Z,20.16
2018-06-07T22:32:02.395Z,20.20
2018-06-07T22:34:31.481Z,20.15
2018-06-07T22:37:00.644Z,20.13
2018-06-07T22:39:29.734Z,20.11
2018-06-07T22:41:58.857Z,20.08
2018-06-07T22:44:28.031Z,20.07
2018-06-07T22:46:57.129Z,20.08
2018-06-07T22:49:26.268Z,20.09
2018-06-07T22:51:55.378Z,20.14
2018-06-07T22:54:24.549Z,20.14
2018-06-07T22:56:53.668Z,20.14
2018-06-07T22:59:22.810Z,20.15
2018-06-07T23:01:51.929Z,20.17
2018-06-07T23:04:21.032Z,20.15
2018-06-07T23:06:50.154Z,20.16
2018-06-07T23:09:19.270Z,20.16
2018-06-07T23:11:48.416Z,20.14
2018-06-07T23:14:17.557Z,20.14
2018-06-07T23:16:46.703Z,20.15
2018-06-07T23:19:15.817Z,20.16
2018-06-07T23:21:45.064Z,20.18
2018-06-07T23:24:14.188Z,20.19
2018-06-07T23:26:43.256Z,20.22
2018-06-07T23:29:12.449Z,20.23
2018-06-07T23:31:41.545Z,20.27
2018-06-07T23:34:10.666Z,20.29
2018-06-07T23:36:39.839Z,20.28
2018-06-07T23:39:09.804Z,20.30
2018-06-07T23:41:38.928Z,20.30
2018-06-07T23:44:08.429Z,20.33
2018-06-07T23:46:37.524Z,20.33
2018-06-07T23:49:06.655Z,20.31
2018-06-07T23:51:35.755Z,20.31
2018-06-07T23:54:04.871Z,20.30
2018-06-07T23:56:34.037Z,20.30
2018-06-07T23:59:03.170Z,20.29
